Time;durP1;ratioP1;P1;durP2;ratioP2;P2;SDS_P1;SDS_P2;PMS_P1;PMS_P2;Temp;Humidity;BMP_temperature;BMP_pressure;BME280_temperature;BME280_humidity;BME280_pressure;Samples;Min_cycle;Max_cycle;Signal;HPM_P1;HPM_P2
2024/01/23 00:00:31;;;;;;;32.83;14.63;;;;;;;;;;4916836;29;20076;-69
2024/01/23 00:02:56;;;;;;;33.30;13.13;;;;;;;;;;4916642;29;20397;-68
2024/01/23 00:05:22;;;;;;;25.88;13.52;;;;;;;;;;4916474;29;20039;-68
2024/01/23 00:07:48;;;;;;;30.75;14.00;;;;;;;;;;4899540;29;20544;-68
2024/01/23 00:10:13;;;;;;;26.98;13.63;;;;;;;;;;4916555;29;20038;-68
2024/01/23 00:12:39;;;;;;;29.70;14.68;;;;;;;;;;4917071;29;20115;-69
2024/01/23 00:15:05;;;;;;;27.13;14.32;;;;;;;;;;4917962;29;20028;-68
2024/01/23 00:17:30;;;;;;;28.83;13.07;;;;;;;;;;4911859;29;20052;-68
2024/01/23 00:19:56;;;;;;;27.25;14.10;;;;;;;;;;4917812;29;20031;-68
2024/01/23 00:22:22;;;;;;;27.48;13.88;;;;;;;;;;4916349;29;20028;-68
2024/01/23 00:24:47;;;;;;;31.00;15.10;;;;;;;;;;4917854;29;20028;-68
2024/01/23 00:27:13;;;;;;;28.23;14.13;;;;;;;;;;4917695;29;20500;-68
2024/01/23 00:29:38;;;;;;;33.33;16.50;;;;;;;;;;4917708;29;20051;-68
2024/01/23 00:32:05;;;;;;;30.42;15.15;;;;;;;;;;4917564;29;20167;-68
2024/01/23 00:34:30;;;;;;;29.67;15.00;;;;;;;;;;4917592;29;20103;-68
2024/01/23 00:36:56;;;;;;;30.08;14.35;;;;;;;;;;4917505;29;20481;-69
2024/01/23 00:39:23;;;;;;;23.08;12.15;;;;;;;;;;4917464;29;20028;-70
2024/01/23 10:14:49;;;;;;;7.68;5.40;;;;;;;;;;5063859;23;20056;-66
2024/01/23 10:17:15;;;;;;;7.30;5.53;;;;;;;;;;4913186;29;20139;-67
2024/01/23 10:19:40;;;;;;;7.18;5.32;;;;;;;;;;4911562;29;20031;-68
2024/01/23 10:22:06;;;;;;;7.97;5.28;;;;;;;;;;4911485;29;20033;-67
2024/01/23 10:24:32;;;;;;;6.43;5.15;;;;;;;;;;4911624;29;20083;-67
2024/01/23 10:26:57;;;;;;;7.43;5.40;;;;;;;;;;4911792;29;20016;-67
2024/01/23 10:29:23;;;;;;;7.78;5.32;;;;;;;;;;4914076;29;20376;-68
2024/01/23 10:31:48;;;;;;;7.50;5.15;;;;;;;;;;4915021;29;20380;-66
2024/01/23 10:34:14;;;;;;;6.50;5.03;;;;;;;;;;4913396;29;20477;-66
2024/01/23 10:36:42;;;;;;;7.95;5.18;;;;;;;;;;4915712;29;20433;-67
2024/01/23 10:39:10;;;;;;;8.60;5.35;;;;;;;;;;4916068;29;20031;-66
2024/01/23 10:41:36;;;;;;;7.35;5.25;;;;;;;;;;4915925;29;20083;-67
2024/01/23 10:44:03;;;;;;;7.18;5.15;;;;;;;;;;4915018;29;20052;-65
2024/01/23 10:46:30;;;;;;;7.18;5.15;;;;;;;;;;4914361;29;20028;-68
2024/01/23 10:48:56;;;;;;;6.78;5.25;;;;;;;;;;4915004;29;20107;-68
2024/01/23 10:51:29;;;;;;;7.28;5.28;;;;;;;;;;4916605;29;20127;-67
2024/01/23 10:54:01;;;;;;;7.03;5.18;;;;;;;;;;4916835;29;20039;-66
2024/01/23 10:56:42;;;;;;;7.25;5.10;;;;;;;;;;4919634;29;20024;-66
2024/01/23 10:59:17;;;;;;;7.15;5.03;;;;;;;;;;4919364;29;20084;-67
2024/01/23 11:01:45;;;;;;;7.50;5.78;;;;;;;;;;4919403;29;20035;-67
2024/01/23 11:04:11;;;;;;;7.53;5.10;;;;;;;;;;4917548;29;20111;-67
2024/01/23 11:07:09;;;;;;;6.70;4.80;;;;;;;;;;4919455;29;20108;-66
2024/01/23 11:10:26;;;;;;;7.65;5.25;;;;;;;;;;4908299;29;20401;-66
2024/01/23 11:13:23;;;;;;;6.45;4.70;;;;;;;;;;4887823;29;20040;-66
2024/01/23 11:15:49;;;;;;;7.65;5.25;;;;;;;;;;4917775;29;20036;-66
2024/01/23 11:18:28;;;;;;;7.43;5.05;;;;;;;;;;4917817;29;20495;-66
2024/01/23 11:21:05;;;;;;;6.50;4.85;;;;;;;;;;4917665;29;20052;-66
2024/01/23 11:23:43;;;;;;;6.82;4.80;;;;;;;;;;4916825;29;20048;-66
2024/01/23 11:26:19;;;;;;;6.97;4.85;;;;;;;;;;4917255;29;20120;-67
2024/01/23 11:29:04;;;;;;;7.47;5.03;;;;;;;;;;4917834;29;20028;-67
2024/01/23 11:31:37;;;;;;;8.70;5.05;;;;;;;;;;4916860;29;20040;-68
2024/01/23 11:34:21;;;;;;;7.30;5.00;;;;;;;;;;4917265;29;20389;-67
2024/01/23 11:36:47;;;;;;;6.03;4.82;;;;;;;;;;4895895;29;20035;-68
2024/01/23 11:39:15;;;;;;;6.93;5.20;;;;;;;;;;4917559;29;20024;-67
2024/01/23 11:41:47;;;;;;;6.63;4.88;;;;;;;;;;4917579;29;20047;-66
2024/01/23 11:44:13;;;;;;;8.40;5.20;;;;;;;;;;4900538;29;20028;-65
2024/01/23 11:46:40;;;;;;;5.82;4.65;;;;;;;;;;4916492;29;20032;-66
2024/01/23 11:49:06;;;;;;;7.50;4.97;;;;;;;;;;4916100;29;20036;-67
2024/01/23 11:51:35;;;;;;;7.53;5.22;;;;;;;;;;4917414;29;20035;-67
2024/01/23 11:54:07;;;;;;;6.18;4.75;;;;;;;;;;4917291;29;20115;-66
2024/01/23 11:56:33;;;;;;;7.78;4.72;;;;;;;;;;4915941;29;20035;-66
2024/01/23 11:58:59;;;;;;;8.00;5.03;;;;;;;;;;4917193;29;20036;-67
2024/01/23 12:01:29;;;;;;;8.18;5.13;;;;;;;;;;4899768;29;20066;-66
2024/01/23 12:03:55;;;;;;;7.10;5.25;;;;;;;;;;4917364;29;20103;-67
2024/01/23 12:06:22;;;;;;;7.45;4.95;;;;;;;;;;4917412;29;20429;-67
2024/01/23 12:08:48;;;;;;;11.30;5.07;;;;;;;;;;4916863;29;20031;-67
2024/01/23 12:11:15;;;;;;;5.88;4.82;;;;;;;;;;4917566;29;20032;-69
2024/01/23 12:13:45;;;;;;;6.90;5.13;;;;;;;;;;4910631;29;20044;-65
2024/01/23 12:16:11;;;;;;;6.80;5.03;;;;;;;;;;4915078;29;20028;-65
2024/01/23 12:18:37;;;;;;;7.32;4.95;;;;;;;;;;4916864;29;20024;-68
2024/01/23 12:21:04;;;;;;;6.47;4.85;;;;;;;;;;4916637;29;20040;-67
2024/01/23 12:23:30;;;;;;;10.52;4.72;;;;;;;;;;4917008;29;20392;-66
2024/01/23 12:25:56;;;;;;;6.35;4.80;;;;;;;;;;4916999;29;20512;-66
2024/01/23 12:28:23;;;;;;;6.13;4.95;;;;;;;;;;4917796;29;20074;-68
2024/01/23 12:30:48;;;;;;;9.68;5.07;;;;;;;;;;4917879;29;20384;-69
2024/01/23 12:33:16;;;;;;;6.60;4.88;;;;;;;;;;4917697;29;20028;-68
2024/01/23 12:35:42;;;;;;;15.38;5.40;;;;;;;;;;4917782;29;20035;-67
2024/01/23 12:38:08;;;;;;;11.73;5.32;;;;;;;;;;4917691;29;20024;-69
2024/01/23 12:40:33;;;;;;;10.52;5.22;;;;;;;;;;4915560;29;20079;-65
2024/01/23 12:42:59;;;;;;;6.90;4.80;;;;;;;;;;4916780;29;20107;-68
2024/01/23 12:45:25;;;;;;;7.57;4.97;;;;;;;;;;4916312;29;20024;-66
2024/01/23 12:47:51;;;;;;;13.90;5.10;;;;;;;;;;4916318;29;20032;-65
2024/01/23 12:50:19;;;;;;;6.60;5.03;;;;;;;;;;4917028;29;20059;-68
2024/01/23 12:52:56;;;;;;;10.75;4.55;;;;;;;;;;4914894;29;20072;-66
2024/01/23 12:55:24;;;;;;;7.35;5.15;;;;;;;;;;4915751;29;20040;-69
2024/01/23 12:57:51;;;;;;;9.27;5.15;;;;;;;;;;4915971;29;20094;-68
2024/01/23 13:00:19;;;;;;;13.48;5.80;;;;;;;;;;4917297;29;20083;-66
2024/01/23 13:02:45;;;;;;;16.10;5.20;;;;;;;;;;4916724;29;20036;-69
2024/01/23 13:05:14;;;;;;;17.88;5.13;;;;;;;;;;4898761;29;20131;-64
2024/01/23 13:07:39;;;;;;;10.05;6.40;;;;;;;;;;4898261;29;20036;-65
2024/01/23 13:10:08;;;;;;;12.00;7.97;;;;;;;;;;4898063;29;20108;-64
2024/01/23 13:12:36;;;;;;;13.35;8.45;;;;;;;;;;4897324;29;20032;-64
2024/01/23 13:15:02;;;;;;;10.32;7.55;;;;;;;;;;4896779;29;20057;-64
2024/01/23 13:17:28;;;;;;;13.85;7.30;;;;;;;;;;4898159;29;20541;-64
2024/01/23 13:19:53;;;;;;;12.15;7.45;;;;;;;;;;4896417;29;20032;-64
2024/01/23 13:22:20;;;;;;;8.45;7.18;;;;;;;;;;4896852;29;20101;-67
2024/01/23 13:24:45;;;;;;;10.35;7.10;;;;;;;;;;4897615;29;20056;-65
2024/01/23 13:27:12;;;;;;;12.05;7.30;;;;;;;;;;4897785;29;20052;-68
2024/01/23 13:29:38;;;;;;;9.77;7.10;;;;;;;;;;4898003;29;20032;-66
2024/01/23 13:32:07;;;;;;;9.57;6.50;;;;;;;;;;4897773;29;20092;-65
2024/01/23 13:34:33;;;;;;;10.95;7.20;;;;;;;;;;4898408;29;20029;-65
2024/01/23 13:37:00;;;;;;;12.23;7.13;;;;;;;;;;4897863;29;20509;-64
2024/01/23 13:39:25;;;;;;;11.25;6.43;;;;;;;;;;4897747;29;20537;-65
2024/01/23 13:41:51;;;;;;;11.18;7.07;;;;;;;;;;4897712;29;20032;-69
2024/01/23 13:44:16;;;;;;;10.35;6.78;;;;;;;;;;4897755;29;20084;-67
2024/01/23 13:46:42;;;;;;;11.32;6.85;;;;;;;;;;4896198;29;20040;-67
2024/01/23 13:49:08;;;;;;;9.13;7.18;;;;;;;;;;4897553;29;20029;-68
2024/01/23 13:51:34;;;;;;;10.80;6.63;;;;;;;;;;4897627;29;20051;-64
2024/01/23 13:53:59;;;;;;;8.75;6.55;;;;;;;;;;4897478;29;20028;-64
2024/01/23 13:56:25;;;;;;;8.52;6.40;;;;;;;;;;4897655;29;20025;-64
2024/01/23 13:58:51;;;;;;;8.32;6.15;;;;;;;;;;4897277;29;20099;-65
2024/01/23 14:01:19;;;;;;;9.50;7.10;;;;;;;;;;4897378;29;20033;-68
2024/01/23 14:03:44;;;;;;;9.05;6.93;;;;;;;;;;4897651;29;20036;-64
2024/01/23 14:06:11;;;;;;;8.65;6.55;;;;;;;;;;4897294;29;20390;-65
2024/01/23 14:08:41;;;;;;;8.52;6.38;;;;;;;;;;4897697;29;20084;-66
2024/01/23 14:11:07;;;;;;;;;;;;;;;;;;4898096;29;20430;-65
2024/01/23 14:13:33;;;;;;;9.50;6.40;;;;;;;;;;4897360;29;19919;-70
2024/01/23 14:16:02;;;;;;;8.38;6.38;;;;;;;;;;4897369;29;20083;-70
2024/01/23 14:18:27;;;;;;;10.38;6.38;;;;;;;;;;4897726;29;20116;-65
2024/01/23 14:20:53;;;;;;;11.75;6.60;;;;;;;;;;4897136;29;20147;-64
2024/01/23 14:23:19;;;;;;;7.82;6.50;;;;;;;;;;4898501;29;20414;-65
2024/01/23 14:25:45;;;;;;;7.95;6.38;;;;;;;;;;4901528;29;20060;-64
2024/01/23 14:28:10;;;;;;;10.70;6.93;;;;;;;;;;4901065;29;20035;-64
2024/01/23 14:30:36;;;;;;;7.65;6.65;;;;;;;;;;4901188;29;20031;-68
2024/01/23 14:33:02;;;;;;;8.10;6.30;;;;;;;;;;4901146;29;20182;-64
2024/01/23 14:35:27;;;;;;;9.43;6.38;;;;;;;;;;4900888;29;20028;-65
2024/01/23 14:37:54;;;;;;;7.82;6.43;;;;;;;;;;4900779;29;20119;-65
2024/01/23 14:40:19;;;;;;;7.28;6.32;;;;;;;;;;4901041;29;20075;-68
2024/01/23 14:42:45;;;;;;;8.77;6.13;;;;;;;;;;4900616;29;20052;-64
2024/01/23 14:45:11;;;;;;;9.98;6.65;;;;;;;;;;4900738;29;20107;-63
2024/01/23 14:47:36;;;;;;;9.75;6.30;;;;;;;;;;4900778;29;20032;-64
2024/01/23 14:50:05;;;;;;;8.70;6.63;;;;;;;;;;4900611;29;20032;-68
2024/01/23 14:52:33;;;;;;;7.10;6.30;;;;;;;;;;4883906;29;20040;-65
2024/01/23 14:54:58;;;;;;;8.60;6.85;;;;;;;;;;4900403;29;20062;-63
2024/01/23 14:57:24;;;;;;;8.38;6.32;;;;;;;;;;4900619;29;20151;-64
2024/01/23 14:59:49;;;;;;;8.35;6.45;;;;;;;;;;4900663;29;20075;-66
2024/01/23 15:02:15;;;;;;;8.90;6.05;;;;;;;;;;4900749;29;20059;-65
2024/01/23 15:04:41;;;;;;;7.28;6.25;;;;;;;;;;4900511;29;20031;-64
2024/01/23 15:07:06;;;;;;;8.23;6.47;;;;;;;;;;4900788;29;20509;-64
2024/01/23 15:09:32;;;;;;;9.13;6.68;;;;;;;;;;4900418;29;20440;-64
2024/01/23 15:11:58;;;;;;;7.18;5.97;;;;;;;;;;4900478;29;20039;-64
2024/01/23 15:14:23;;;;;;;7.45;6.25;;;;;;;;;;4900273;29;20052;-64
2024/01/23 15:16:50;;;;;;;7.57;6.07;;;;;;;;;;4900360;29;20024;-66
2024/01/23 15:19:15;;;;;;;10.40;6.65;;;;;;;;;;4900247;29;20032;-68
2024/01/23 15:21:43;;;;;;;8.55;6.22;;;;;;;;;;4900003;29;20080;-64
2024/01/23 15:24:09;;;;;;;7.00;6.28;;;;;;;;;;4900091;29;20025;-69
2024/01/23 15:26:36;;;;;;;8.43;6.40;;;;;;;;;;4900057;29;20052;-64
2024/01/23 15:29:03;;;;;;;8.95;6.70;;;;;;;;;;4899838;29;20035;-64
2024/01/23 15:31:29;;;;;;;8.75;6.75;;;;;;;;;;4900050;29;20072;-69
2024/01/23 15:33:55;;;;;;;8.77;5.88;;;;;;;;;;4900089;29;20056;-64
2024/01/23 15:36:22;;;;;;;9.65;6.28;;;;;;;;;;4899389;29;20064;-65
2024/01/23 15:38:48;;;;;;;8.35;6.43;;;;;;;;;;4899675;29;20084;-63
2024/01/23 15:41:14;;;;;;;8.30;6.50;;;;;;;;;;4883112;29;20033;-65
2024/01/23 15:43:40;;;;;;;7.15;6.13;;;;;;;;;;4899948;29;20079;-64
2024/01/23 15:46:06;;;;;;;8.13;6.53;;;;;;;;;;4899965;29;20036;-64
2024/01/23 15:48:31;;;;;;;7.45;6.05;;;;;;;;;;4899635;29;20029;-64
2024/01/23 15:50:57;;;;;;;6.93;6.22;;;;;;;;;;4899485;29;20036;-67
2024/01/23 15:53:22;;;;;;;6.63;5.72;;;;;;;;;;4899583;29;20032;-64
2024/01/23 15:55:48;;;;;;;7.90;5.80;;;;;;;;;;4899545;29;20190;-64
2024/01/23 15:58:15;;;;;;;7.43;5.72;;;;;;;;;;4899590;29;20036;-69
2024/01/23 16:00:41;;;;;;;7.47;6.03;;;;;;;;;;4899313;29;20033;-64
2024/01/23 16:03:07;;;;;;;7.20;5.60;;;;;;;;;;4899413;29;20104;-67
2024/01/23 16:05:34;;;;;;;8.10;5.95;;;;;;;;;;4899497;29;20112;-63
2024/01/23 16:07:59;;;;;;;7.70;6.32;;;;;;;;;;4899326;29;20039;-65
2024/01/23 16:10:25;;;;;;;6.78;6.00;;;;;;;;;;4899570;29;20033;-64
2024/01/23 16:12:51;;;;;;;8.10;6.47;;;;;;;;;;4899175;29;20060;-63
2024/01/23 16:15:17;;;;;;;8.52;6.43;;;;;;;;;;4899129;29;20084;-63
2024/01/23 16:17:43;;;;;;;7.88;6.20;;;;;;;;;;4899033;29;20033;-66
2024/01/23 16:20:09;;;;;;;9.38;6.13;;;;;;;;;;4899310;29;20037;-69
2024/01/23 16:22:35;;;;;;;8.38;6.05;;;;;;;;;;4898974;29;20040;-69
2024/01/23 16:25:00;;;;;;;7.22;6.13;;;;;;;;;;4899343;29;20028;-63
2024/01/23 16:27:26;;;;;;;7.72;6.15;;;;;;;;;;4898900;29;20056;-64
2024/01/23 16:29:51;;;;;;;8.60;6.95;;;;;;;;;;4899215;29;20378;-64
2024/01/23 16:32:17;;;;;;;6.60;5.75;;;;;;;;;;4898827;29;20021;-66
2024/01/23 16:34:43;;;;;;;7.30;6.18;;;;;;;;;;4898518;29;20545;-69
2024/01/23 16:37:09;;;;;;;6.35;5.65;;;;;;;;;;4898547;29;20028;-70
2024/01/23 16:39:34;;;;;;;7.00;6.28;;;;;;;;;;4898656;29;20123;-68
2024/01/23 16:42:00;;;;;;;7.85;6.22;;;;;;;;;;4898635;29;20478;-64
2024/01/23 16:44:26;;;;;;;7.38;6.18;;;;;;;;;;4898415;29;20367;-66
2024/01/23 16:46:51;;;;;;;8.43;6.13;;;;;;;;;;4897429;29;20073;-65
2024/01/23 16:49:18;;;;;;;7.43;6.05;;;;;;;;;;4898830;29;20024;-68
2024/01/23 16:51:44;;;;;;;6.85;5.95;;;;;;;;;;4898473;29;20068;-65
2024/01/23 16:54:11;;;;;;;7.82;5.78;;;;;;;;;;4898773;29;20033;-63
2024/01/23 16:56:36;;;;;;;9.13;6.18;;;;;;;;;;4898366;29;20028;-64
2024/01/23 16:59:02;;;;;;;7.32;6.03;;;;;;;;;;4898044;29;20033;-66
2024/01/23 17:01:27;;;;;;;6.97;5.82;;;;;;;;;;4898149;29;20077;-64
2024/01/23 17:03:53;;;;;;;8.88;6.05;;;;;;;;;;4898230;29;20047;-67
2024/01/23 17:06:19;;;;;;;7.75;6.20;;;;;;;;;;4898070;29;20025;-67
2024/01/23 17:08:53;;;;;;;7.38;6.22;;;;;;;;;;5109714;27;20401;-73
2024/01/23 17:11:18;;;;;;;8.10;6.53;;;;;;;;;;5110103;28;20082;-69
2024/01/23 17:13:44;;;;;;;7.25;5.63;;;;;;;;;;5110147;28;20028;-64
2024/01/23 17:16:09;;;;;;;7.43;6.15;;;;;;;;;;5110388;28;20066;-63
2024/01/23 17:18:35;;;;;;;7.30;5.50;;;;;;;;;;5110127;28;20031;-66
2024/01/23 17:21:01;;;;;;;7.88;5.85;;;;;;;;;;5110073;28;20089;-64
2024/01/23 17:23:26;;;;;;;9.52;6.20;;;;;;;;;;5110405;28;20089;-63
2024/01/23 17:25:52;;;;;;;9.73;5.95;;;;;;;;;;5109632;28;20023;-65
2024/01/23 17:28:18;;;;;;;8.00;5.80;;;;;;;;;;5108587;28;20032;-64
2024/01/23 17:30:43;;;;;;;10.43;6.13;;;;;;;;;;5108187;28;20357;-66
2024/01/23 17:33:10;;;;;;;7.45;5.75;;;;;;;;;;5108209;28;20047;-65
2024/01/23 17:35:37;;;;;;;8.95;5.50;;;;;;;;;;5108136;28;20034;-65
2024/01/23 17:38:03;;;;;;;7.15;5.45;;;;;;;;;;5107809;28;20489;-66
2024/01/23 17:40:29;;;;;;;7.40;5.82;;;;;;;;;;5108308;28;20032;-65
2024/01/23 17:42:54;;;;;;;8.45;6.22;;;;;;;;;;5109835;28;20024;-65
2024/01/23 17:45:20;;;;;;;11.63;6.20;;;;;;;;;;5094054;28;20037;-64
2024/01/23 17:47:47;;;;;;;10.02;6.30;;;;;;;;;;5086796;28;20502;-70
2024/01/23 17:50:13;;;;;;;11.68;6.30;;;;;;;;;;5083422;28;20024;-68
2024/01/23 17:52:39;;;;;;;9.20;6.13;;;;;;;;;;5089130;28;20380;-64
2024/01/23 17:55:05;;;;;;;7.65;5.93;;;;;;;;;;5084915;28;20085;-70
2024/01/23 17:57:30;;;;;;;10.38;5.90;;;;;;;;;;5087049;28;20050;-66
2024/01/23 17:59:56;;;;;;;12.80;6.20;;;;;;;;;;5084807;28;20464;-64
2024/01/23 18:02:21;;;;;;;7.72;5.70;;;;;;;;;;5089001;28;20388;-67
2024/01/23 18:04:47;;;;;;;11.23;5.75;;;;;;;;;;5089350;28;20032;-68
2024/01/23 18:07:15;;;;;;;7.55;5.50;;;;;;;;;;5089029;28;20463;-65
2024/01/23 18:09:41;;;;;;;10.82;6.10;;;;;;;;;;5088897;28;20038;-68
2024/01/23 18:12:07;;;;;;;7.72;6.00;;;;;;;;;;5082806;28;20096;-66
2024/01/23 18:14:37;;;;;;;7.82;5.70;;;;;;;;;;5088938;28;20366;-67
2024/01/23 18:17:04;;;;;;;9.38;6.43;;;;;;;;;;5087417;28;20568;-67
2024/01/23 18:19:31;;;;;;;10.77;6.10;;;;;;;;;;5079514;28;20102;-66
2024/01/23 18:21:57;;;;;;;6.97;5.65;;;;;;;;;;5067837;28;20029;-65
2024/01/23 18:24:22;;;;;;;7.25;5.10;;;;;;;;;;5054767;28;20021;-68
2024/01/23 18:26:48;;;;;;;7.80;5.05;;;;;;;;;;5054693;28;20025;-65
2024/01/23 18:29:14;;;;;;;7.25;5.05;;;;;;;;;;5073950;28;20021;-67
2024/01/23 18:31:40;;;;;;;11.15;5.10;;;;;;;;;;5074582;28;20035;-67
2024/01/23 18:34:06;;;;;;;13.52;5.13;;;;;;;;;;5089352;28;20031;-68
2024/01/23 18:36:31;;;;;;;9.57;4.90;;;;;;;;;;5074675;28;20384;-68
2024/01/23 18:38:57;;;;;;;6.95;4.43;;;;;;;;;;5074736;28;20024;-70
2024/01/23 18:41:22;;;;;;;10.38;4.70;;;;;;;;;;5074689;28;20056;-68
2024/01/23 18:43:49;;;;;;;10.60;5.93;;;;;;;;;;5074618;28;20024;-67
2024/01/23 18:46:15;;;;;;;9.90;5.03;;;;;;;;;;5090243;28;20461;-68
2024/01/23 18:48:41;;;;;;;10.88;5.13;;;;;;;;;;5074468;28;20078;-68
2024/01/23 18:51:06;;;;;;;9.63;5.28;;;;;;;;;;5068999;28;20507;-68
2024/01/23 18:53:32;;;;;;;8.48;5.20;;;;;;;;;;5074627;28;20393;-73
2024/01/23 18:55:58;;;;;;;6.88;5.10;;;;;;;;;;5073424;28;20484;-74
2024/01/23 18:58:23;;;;;;;8.30;5.22;;;;;;;;;;5062211;28;20029;-75
2024/01/23 19:00:50;;;;;;;5.82;4.70;;;;;;;;;;5074042;28;20028;-74
2024/01/23 19:03:16;;;;;;;5.95;4.63;;;;;;;;;;5074528;28;20024;-75
2024/01/23 19:05:41;;;;;;;7.82;4.40;;;;;;;;;;5074454;28;20480;-74
2024/01/23 19:08:07;;;;;;;7.28;4.65;;;;;;;;;;5089721;28;20056;-70
2024/01/23 19:10:33;;;;;;;7.28;5.25;;;;;;;;;;5057114;28;20025;-69
2024/01/23 19:13:00;;;;;;;8.13;4.70;;;;;;;;;;5054411;28;20120;-68
2024/01/23 19:15:26;;;;;;;7.65;4.90;;;;;;;;;;5054107;28;20075;-68
2024/01/23 19:17:51;;;;;;;6.63;4.47;;;;;;;;;;5061659;28;20025;-74
2024/01/23 19:20:17;;;;;;;7.55;4.57;;;;;;;;;;5070947;28;20056;-68
2024/01/23 19:22:43;;;;;;;6.95;4.68;;;;;;;;;;5064215;28;20068;-70
2024/01/23 19:25:09;;;;;;;8.20;4.95;;;;;;;;;;5070610;28;20021;-70
2024/01/23 19:27:34;;;;;;;5.78;4.78;;;;;;;;;;5058838;28;20037;-69
2024/01/23 19:30:00;;;;;;;7.47;4.68;;;;;;;;;;5065916;28;20074;-73
2024/01/23 19:32:25;;;;;;;7.82;4.80;;;;;;;;;;5068128;28;20094;-69
2024/01/23 19:34:52;;;;;;;6.80;4.45;;;;;;;;;;5053995;28;20036;-69
2024/01/23 19:37:17;;;;;;;10.73;5.50;;;;;;;;;;5053826;28;20388;-69
2024/01/23 19:39:43;;;;;;;6.60;4.90;;;;;;;;;;5053628;28;20448;-72
2024/01/23 19:42:08;;;;;;;8.52;4.97;;;;;;;;;;5053543;28;20508;-72
2024/01/23 19:44:34;;;;;;;7.03;5.10;;;;;;;;;;5053498;28;20384;-74
2024/01/23 19:47:00;;;;;;;7.43;5.00;;;;;;;;;;5053489;28;20025;-71
2024/01/23 19:49:25;;;;;;;7.18;4.68;;;;;;;;;;5052084;28;20017;-71
2024/01/23 19:51:51;;;;;;;8.07;4.95;;;;;;;;;;5052610;28;20067;-69
2024/01/23 19:54:17;;;;;;;7.30;5.15;;;;;;;;;;5053599;28;20389;-69
2024/01/23 19:56:43;;;;;;;7.60;4.38;;;;;;;;;;5053366;28;20025;-72
2024/01/23 19:59:10;;;;;;;9.38;4.72;;;;;;;;;;5053196;28;20029;-70
2024/01/23 20:01:35;;;;;;;9.30;4.82;;;;;;;;;;5053336;28;20021;-70
2024/01/23 20:04:01;;;;;;;9.77;5.45;;;;;;;;;;5051907;28;20116;-72
2024/01/23 20:06:27;;;;;;;7.38;4.53;;;;;;;;;;5053381;28;20024;-70
2024/01/23 20:08:53;;;;;;;6.05;4.35;;;;;;;;;;5051049;28;20520;-71
2024/01/23 20:11:19;;;;;;;7.82;4.80;;;;;;;;;;5051437;28;20477;-73
2024/01/23 20:13:46;;;;;;;7.82;4.68;;;;;;;;;;5051376;28;20025;-70
2024/01/23 20:16:13;;;;;;;8.05;4.57;;;;;;;;;;5051467;28;20454;-71
2024/01/23 20:18:38;;;;;;;6.57;4.95;;;;;;;;;;5051755;28;20035;-70
2024/01/23 20:21:04;;;;;;;7.22;4.65;;;;;;;;;;5051293;28;20130;-73
2024/01/23 20:23:30;;;;;;;7.30;4.80;;;;;;;;;;5051228;28;20032;-72
2024/01/23 20:25:55;;;;;;;8.80;4.50;;;;;;;;;;5051202;28;20021;-72
2024/01/23 20:28:21;;;;;;;9.63;4.50;;;;;;;;;;5050015;28;20028;-72
2024/01/23 20:30:46;;;;;;;9.32;4.47;;;;;;;;;;5051367;28;20501;-72
2024/01/23 20:33:12;;;;;;;5.50;4.18;;;;;;;;;;5050992;28;20025;-73
2024/01/23 20:35:37;;;;;;;7.03;4.30;;;;;;;;;;5051121;28;20021;-72
2024/01/23 20:38:03;;;;;;;7.07;4.55;;;;;;;;;;5051237;28;20025;-71
2024/01/23 20:40:29;;;;;;;6.20;4.50;;;;;;;;;;5050999;28;20025;-72
2024/01/23 20:42:54;;;;;;;8.52;4.72;;;;;;;;;;5050665;28;20032;-70
2024/01/23 20:45:20;;;;;;;6.13;4.55;;;;;;;;;;5051247;28;20021;-71
2024/01/23 20:47:45;;;;;;;8.50;4.93;;;;;;;;;;5050803;28;20766;-70
2024/01/23 20:50:11;;;;;;;7.80;4.57;;;;;;;;;;5065141;28;20040;-70
2024/01/23 20:52:36;;;;;;;6.55;4.40;;;;;;;;;;5070895;28;20029;-69
2024/01/23 20:55:03;;;;;;;7.43;4.25;;;;;;;;;;5071288;28;20032;-70
2024/01/23 20:57:30;;;;;;;7.55;4.50;;;;;;;;;;5071172;28;20106;-69
2024/01/23 20:59:55;;;;;;;7.10;4.22;;;;;;;;;;5071017;28;20495;-70
2024/01/23 21:02:22;;;;;;;5.38;4.13;;;;;;;;;;5071526;28;20024;-70
2024/01/23 21:04:48;;;;;;;7.32;4.25;;;;;;;;;;5070884;28;20025;-71
2024/01/23 21:07:14;;;;;;;7.03;4.60;;;;;;;;;;5086275;28;20471;-70
2024/01/23 21:09:41;;;;;;;6.63;3.90;;;;;;;;;;5070520;28;20104;-69
2024/01/23 21:12:07;;;;;;;6.50;4.32;;;;;;;;;;5071385;28;20119;-69
2024/01/23 21:14:33;;;;;;;8.77;4.93;;;;;;;;;;5070596;28;20107;-69
2024/01/23 21:16:59;;;;;;;8.25;4.35;;;;;;;;;;5070634;28;20036;-69
2024/01/23 21:19:25;;;;;;;8.30;3.95;;;;;;;;;;5054178;28;20031;-69
2024/01/23 21:21:50;;;;;;;11.68;4.65;;;;;;;;;;5066054;28;20572;-69
2024/01/23 21:24:17;;;;;;;8.05;4.30;;;;;;;;;;5064124;28;20027;-69
2024/01/23 21:26:42;;;;;;;7.30;4.18;;;;;;;;;;5069884;28;20024;-69
2024/01/23 21:29:08;;;;;;;6.35;4.53;;;;;;;;;;5070813;28;20385;-70
2024/01/23 21:31:33;;;;;;;5.57;4.13;;;;;;;;;;5071078;28;20064;-69
2024/01/23 21:33:59;;;;;;;6.10;4.05;;;;;;;;;;5070863;28;20032;-69
2024/01/23 21:36:24;;;;;;;4.43;3.60;;;;;;;;;;5069559;28;20032;-69
2024/01/23 21:38:50;;;;;;;7.95;4.00;;;;;;;;;;5070182;28;20522;-70
2024/01/23 21:41:17;;;;;;;6.03;4.38;;;;;;;;;;5070983;28;20463;-70
2024/01/23 21:43:43;;;;;;;8.07;4.13;;;;;;;;;;5070338;28;20158;-70
2024/01/23 21:46:08;;;;;;;5.93;4.22;;;;;;;;;;5070869;28;20107;-69
2024/01/23 21:48:35;;;;;;;6.40;4.43;;;;;;;;;;5070678;28;20043;-69
2024/01/23 21:51:00;;;;;;;6.60;4.53;;;;;;;;;;5071108;28;20673;-68
2024/01/23 21:53:26;;;;;;;5.93;3.78;;;;;;;;;;5070674;28;20108;-70
2024/01/23 21:55:52;;;;;;;5.68;3.58;;;;;;;;;;5074486;28;20042;-70
2024/01/23 21:58:17;;;;;;;7.07;4.05;;;;;;;;;;5074442;28;20148;-69
2024/01/23 22:00:43;;;;;;;6.07;3.90;;;;;;;;;;5074286;28;20063;-69
2024/01/23 22:03:09;;;;;;;6.22;4.15;;;;;;;;;;5074172;28;20050;-70
2024/01/23 22:05:35;;;;;;;5.32;3.80;;;;;;;;;;5074059;28;20032;-69
2024/01/23 22:08:02;;;;;;;5.05;3.78;;;;;;;;;;5073960;28;20131;-70
2024/01/23 22:10:27;;;;;;;5.60;3.95;;;;;;;;;;5074584;28;20025;-69
2024/01/23 22:12:53;;;;;;;5.03;3.92;;;;;;;;;;5074060;28;20029;-69
2024/01/23 22:15:18;;;;;;;6.63;3.67;;;;;;;;;;5073788;28;20034;-69
2024/01/23 22:17:45;;;;;;;6.70;4.03;;;;;;;;;;5073778;28;20056;-69
2024/01/23 22:20:11;;;;;;;7.07;4.15;;;;;;;;;;5073911;28;20106;-69
2024/01/23 22:22:37;;;;;;;7.25;4.22;;;;;;;;;;5073790;28;20485;-69
2024/01/23 22:25:04;;;;;;;6.40;4.05;;;;;;;;;;5073647;28;20033;-69
2024/01/23 22:27:29;;;;;;;6.03;4.32;;;;;;;;;;5073753;28;20032;-70
2024/01/23 22:29:56;;;;;;;5.65;3.88;;;;;;;;;;5074757;28;20085;-69
2024/01/23 22:32:21;;;;;;;7.90;4.47;;;;;;;;;;5073986;28;20386;-70
2024/01/23 22:34:47;;;;;;;8.75;4.22;;;;;;;;;;5073317;28;20029;-69
2024/01/23 22:37:12;;;;;;;6.07;4.00;;;;;;;;;;5073962;28;20402;-70
2024/01/23 22:39:38;;;;;;;5.93;3.92;;;;;;;;;;5073596;28;20048;-70
2024/01/23 22:42:04;;;;;;;5.18;3.97;;;;;;;;;;5073737;28;20086;-68
2024/01/23 22:44:29;;;;;;;7.80;3.83;;;;;;;;;;5073597;28;20472;-69
2024/01/23 22:46:55;;;;;;;6.35;3.70;;;;;;;;;;5073256;28;20030;-69
2024/01/23 22:49:20;;;;;;;6.35;3.88;;;;;;;;;;5073593;28;20103;-69
2024/01/23 22:51:46;;;;;;;6.18;3.55;;;;;;;;;;5072449;28;20063;-69
2024/01/23 22:54:12;;;;;;;5.18;3.70;;;;;;;;;;5073061;28;20393;-73
2024/01/23 22:56:37;;;;;;;4.15;3.50;;;;;;;;;;5073188;28;20040;-72
2024/01/23 22:59:03;;;;;;;5.65;3.95;;;;;;;;;;5073809;28;20032;-73
2024/01/23 23:01:29;;;;;;;6.22;4.03;;;;;;;;;;5072850;28;20103;-78
2024/01/23 23:03:55;;;;;;;4.88;3.63;;;;;;;;;;5068179;28;20032;-76
2024/01/23 23:06:21;;;;;;;7.35;3.60;;;;;;;;;;5068395;28;20024;-73
2024/01/23 23:08:47;;;;;;;6.72;3.85;;;;;;;;;;5059741;28;20048;-73
2024/01/23 23:11:12;;;;;;;4.93;3.92;;;;;;;;;;5073211;28;20060;-75
2024/01/23 23:13:38;;;;;;;8.23;4.03;;;;;;;;;;5073731;28;20039;-75
2024/01/23 23:16:06;;;;;;;6.90;3.90;;;;;;;;;;5076757;28;20424;-73
2024/01/23 23:18:33;;;;;;;6.63;3.88;;;;;;;;;;5075671;28;20028;-75
2024/01/23 23:20:58;;;;;;;11.00;3.97;;;;;;;;;;5060341;28;20020;-77
2024/01/23 23:23:24;;;;;;;13.23;4.95;;;;;;;;;;5057339;28;20035;-73
2024/01/23 23:25:50;;;;;;;12.73;4.07;;;;;;;;;;5059135;28;20028;-73
2024/01/23 23:28:15;;;;;;;9.63;3.60;;;;;;;;;;5082519;28;20031;-74
2024/01/23 23:30:41;;;;;;;6.65;3.80;;;;;;;;;;5086864;28;20020;-78
2024/01/23 23:33:07;;;;;;;9.27;3.53;;;;;;;;;;5091576;28;20411;-73
2024/01/23 23:35:32;;;;;;;6.97;3.53;;;;;;;;;;5089901;28;20612;-73
2024/01/23 23:37:58;;;;;;;7.20;4.05;;;;;;;;;;5083395;28;20059;-78
2024/01/23 23:40:23;;;;;;;9.57;3.65;;;;;;;;;;5084600;28;20032;-73
2024/01/23 23:42:49;;;;;;;10.60;4.10;;;;;;;;;;5086845;28;20028;-74
2024/01/23 23:45:14;;;;;;;8.80;3.72;;;;;;;;;;5087622;28;20110;-78
2024/01/23 23:47:40;;;;;;;14.18;4.25;;;;;;;;;;5080269;28;20040;-74
2024/01/23 23:50:06;;;;;;;5.32;3.60;;;;;;;;;;5072689;28;20097;-73
2024/01/23 23:52:32;;;;;;;7.18;3.97;;;;;;;;;;5076526;28;20023;-77
2024/01/23 23:54:57;;;;;;;5.68;3.80;;;;;;;;;;5083678;28;20020;-75
2024/01/23 23:57:23;;;;;;;4.45;3.58;;;;;;;;;;5076577;28;20031;-77
2024/01/23 23:59:48;;;;;;;5.28;3.70;;;;;;;;;;5057484;28;20028;-78
